• Join FlightAware (Why Join?)
  • Login
  • US Flag 
08:45PM EDT


 

Airport Tracker/Info


-or-


 

Live Flight TrackerFlight Track Log ✈ UAL6044 ✈ 20-Apr-2013 ✈ KORD - KIND

Flight Track Log - Related Links

Times and Time Zones

All times are in EDT time to prevent confusion due to time zone crossing. See the UAL6044 flight status page for this flight to view local times or setup timezone preferences in your user account.

Time Position Orientation Groundspeed Altitude Reporting Facility
EDT Latitude Longitude Course Direction KTS MPH feet Rate Location/Type
10:42AM 41.9167 -87.9000 162° South 197 227 3,000  Level Chicago TRACON
10:44AM 41.7378 -87.7269 157° South  Level Estimated
10:44AM 41.8025 -87.8972 179° South 249 287 6,700  Level Chicago Center
10:45AM 41.6483 -87.6947 165° South  Level FlightAware Approximate
10:45AM 41.7325 -87.8497 153° Southeast 284 327 9,400  Level Chicago Center
10:46AM 41.5673 -87.6341 156° South  Level Estimated
10:46AM 41.6608 -87.7861 146° Southeast 304 350 11,500  Level Chicago Center
10:47AM 41.4791 -87.5959 162° South  Level FlightAware Approximate
10:47AM 41.5856 -87.7175 146° Southeast 323 372 13,700  Level Chicago Center
10:48AM 41.5069 -87.6472 146° Southeast 335 386 15,600 1,680 Climbing Chicago Center
10:49AM 41.4242 -87.5728 146° Southeast 353 406 17,200 1,680 Climbing Chicago Center
10:50AM 41.3197 -87.4736 144° Southeast 380 437 19,100 1,800 Climbing Chicago Center
10:51AM 41.2292 -87.3958 147° Southeast 384 442 20,900 900 Climbing Chicago Center
10:52AM 41.1225 -87.3422 159° South 407 468 21,000  Climbing Chicago Center
10:53AM 41.0067 -87.2869 160° South 430 495 21,000  Level Chicago Center
10:54AM 40.8858 -87.2281 160° South 454 522 21,000  Level Chicago Center
10:55AM 40.7678 -87.1694 159° South 456 525 21,000  Level Chicago Center
10:56AM 40.6500 -87.1131 160° South 452 520 21,000  Level Chicago Center
10:57AM 40.5328 -87.0553 159° South 452 520 21,000 -720 Level Chicago Center
10:58AM 40.3936 -86.9869 159° South 446 513 19,600 -2,520 Descending Chicago Center
10:59AM 40.2814 -86.9325 160° South 432 497 15,900 -3,180 Descending Chicago Center
11:00AM 40.1772 -86.8761 158° South 412 474 13,100 -2,220 Descending Chicago Center
11:01AM 40.1175 -86.8067 138° Southeast 408 470 12,000 -1,140 Descending Indianapolis Center
11:02AM 40.0450 -86.7028 132° Southeast 393 452 11,100 -540 Descending Indianapolis Center
11:03AM 39.9714 -86.5942 131° Southeast 392 451 10,900 -660 Descending Indianapolis Center
11:04AM 39.9111 -86.5022 131° Southeast 368 423 9,800 -1,320 Descending Indianapolis Center
11:05AM 39.8581 -86.4219 131° Southeast 333 383 8,300 -1,620 Descending Indianapolis Center
11:05AM 39.8500 -86.3500 98° East 295 339 7,300 -1,800 Descending Indianapolis TRACON
11:06AM 39.8667 -86.2500 78° East 259 298 5,600 -1,380 Descending Indianapolis TRACON
11:07AM 39.9000 -86.1833 57° Northeast 219 252 4,500 -1,020 Descending Indianapolis TRACON
11:08AM 39.8500 -86.1667 166° South 214 246 3,500 -1,020 Descending Indianapolis TRACON